createdAt,value
2023-03-07T00:01:07.210Z,26.30
2023-03-07T00:06:08.718Z,29.42
2023-03-07T00:11:07.357Z,22.50
2023-03-07T00:16:10.215Z,28.42
2023-03-07T00:21:09.558Z,26.98
2023-03-07T00:26:08.521Z,34.53
2023-03-07T00:31:07.633Z,29.67
2023-03-07T00:36:05.508Z,32.65
2023-03-07T00:41:11.024Z,35.50
2023-03-07T00:46:07.825Z,43.75
2023-03-07T00:51:05.642Z,35.88
2023-03-07T00:56:03.634Z,42.40
2023-03-07T01:01:00.545Z,43.83
2023-03-07T01:05:56.957Z,37.53
2023-03-07T01:10:58.923Z,37.67
2023-03-07T01:15:55.910Z,39.13
2023-03-07T01:20:52.361Z,39.30
2023-03-07T01:25:48.743Z,38.38
2023-03-07T01:30:45.169Z,44.03
2023-03-07T01:35:42.182Z,39.38
2023-03-07T01:40:39.405Z,43.92
2023-03-07T01:45:35.762Z,48.08
2023-03-07T01:50:32.202Z,37.60
2023-03-07T01:55:33.973Z,42.35
2023-03-07T02:00:30.495Z,38.97
2023-03-07T02:05:33.317Z,44.13
2023-03-07T02:10:32.742Z,36.38
2023-03-07T02:15:29.223Z,38.45
2023-03-07T02:20:48.586Z,32.17
2023-03-07T02:25:54.675Z,38.42
2023-03-07T02:30:58.937Z,33.70
2023-03-07T02:35:58.423Z,36.40
2023-03-07T02:40:55.467Z,27.80
2023-03-07T02:45:51.935Z,32.20
2023-03-07T02:50:48.766Z,34.33
2023-03-07T02:55:45.179Z,34.95
2023-03-07T03:00:41.596Z,35.25
2023-03-07T03:05:38.034Z,35.97
2023-03-07T03:10:34.465Z,37.08
2023-03-07T03:15:30.956Z,41.65
2023-03-07T03:20:27.989Z,37.28
2023-03-07T03:25:25.122Z,36.88
2023-03-07T03:30:21.685Z,38.45
2023-03-07T03:35:18.231Z,33.65
2023-03-07T03:40:15.791Z,37.70
2023-03-07T03:45:12.715Z,31.02
2023-03-07T03:50:10.024Z,34.60
2023-03-07T03:55:06.621Z,31.85
2023-03-07T04:00:05.431Z,29.60
2023-03-07T04:05:01.962Z,29.70
2023-03-07T04:09:58.409Z,26.98
2023-03-07T04:14:54.833Z,25.70
2023-03-07T04:19:51.205Z,29.80
2023-03-07T04:24:47.632Z,25.90
2023-03-07T04:29:44.101Z,23.20
2023-03-07T04:34:40.511Z,26.17
2023-03-07T04:39:37.040Z,16.67
2023-03-07T04:44:33.479Z,19.98
2023-03-07T04:49:29.926Z,15.38
2023-03-07T04:54:26.326Z,16.35
2023-03-07T04:59:22.770Z,21.75
2023-03-07T05:04:19.231Z,14.52
2023-03-07T05:09:15.666Z,14.60
2023-03-07T05:14:12.050Z,12.57
2023-03-07T05:19:09.296Z,12.00
2023-03-07T05:24:06.136Z,10.05
2023-03-07T05:29:03.152Z,10.50
2023-03-07T05:33:59.665Z,9.30
2023-03-07T05:38:57.039Z,6.93
2023-03-07T05:43:55.216Z,10.05
2023-03-07T05:48:51.708Z,11.38
2023-03-07T05:53:48.170Z,6.57
2023-03-07T05:58:44.882Z,10.30
2023-03-07T06:03:42.819Z,7.65
2023-03-07T06:08:39.258Z,6.35
2023-03-07T06:13:35.689Z,10.70
2023-03-07T06:18:32.176Z,11.68
2023-03-07T06:23:30.783Z,12.98
2023-03-07T06:28:27.856Z,14.32
2023-03-07T06:33:24.362Z,8.65
2023-03-07T06:38:20.828Z,9.18
2023-03-07T06:43:17.189Z,11.48
2023-03-07T06:48:13.616Z,10.02
2023-03-07T06:53:10.087Z,11.02
2023-03-07T06:58:06.573Z,14.15
2023-03-07T07:03:03.029Z,9.55
2023-03-07T07:07:59.476Z,7.47
2023-03-07T07:12:56.932Z,10.32
2023-03-07T07:17:53.567Z,12.70
2023-03-07T07:22:49.987Z,8.82
2023-03-07T07:27:46.623Z,7.07
2023-03-07T07:32:44.880Z,14.90
2023-03-07T07:37:41.602Z,13.40
2023-03-07T07:42:38.028Z,10.93
2023-03-07T07:47:34.437Z,9.07
2023-03-07T07:52:30.830Z,11.50
2023-03-07T07:57:27.212Z,12.60
2023-03-07T08:02:23.727Z,12.10
2023-03-07T08:07:20.142Z,7.18
2023-03-07T08:12:16.876Z,14.40
2023-03-07T08:17:13.279Z,17.25
2023-03-07T08:22:09.768Z,14.70
2023-03-07T08:27:06.242Z,11.77
2023-03-07T08:32:02.767Z,8.57
2023-03-07T08:36:59.250Z,10.00
2023-03-07T08:41:56.723Z,10.18
2023-03-07T08:46:53.223Z,13.60
2023-03-07T08:51:50.071Z,15.85
2023-03-07T08:56:46.465Z,8.43
2023-03-07T09:01:42.951Z,11.75
2023-03-07T09:06:39.683Z,13.23
2023-03-07T09:11:36.352Z,10.40
2023-03-07T09:16:32.841Z,10.48
2023-03-07T09:21:29.506Z,14.73
2023-03-07T09:26:27.044Z,11.95
2023-03-07T09:31:23.570Z,10.43
2023-03-07T09:36:20.219Z,9.85
2023-03-07T09:41:41.593Z,13.32
2023-03-07T09:47:26.857Z,10.27
2023-03-07T09:52:26.940Z,10.57
2023-03-07T09:57:28.452Z,11.57
2023-03-07T10:02:34.559Z,12.15
2023-03-07T10:07:32.494Z,11.35
2023-03-07T10:12:41.407Z,7.40
2023-03-07T10:18:06.493Z,10.60
2023-03-07T10:23:22.688Z,9.50
2023-03-07T10:28:24.112Z,13.43
2023-03-07T10:33:20.866Z,6.68
2023-03-07T10:38:30.414Z,5.47
2023-03-07T10:43:34.649Z,6.68
2023-03-07T10:48:32.265Z,12.73
2023-03-07T10:53:36.096Z,14.70
2023-03-07T10:58:32.467Z,9.27
2023-03-07T11:03:51.423Z,13.38
2023-03-07T11:08:48.257Z,15.23
2023-03-07T11:14:05.288Z,7.68
2023-03-07T11:19:03.982Z,11.25
2023-03-07T11:24:06.546Z,16.20
2023-03-07T11:34:20.814Z,7.72
2023-03-07T11:39:22.978Z,14.40
2023-03-07T11:44:52.864Z,12.88
2023-03-07T11:49:55.334Z,9.23
2023-03-07T11:55:13.428Z,12.90
2023-03-07T12:00:32.468Z,9.00
2023-03-07T12:05:28.830Z,13.93
2023-03-07T12:10:48.638Z,11.55
2023-03-07T12:16:04.874Z,11.88
2023-03-07T12:21:16.334Z,8.50
2023-03-07T12:26:26.972Z,10.65
2023-03-07T12:31:32.685Z,7.22
2023-03-07T12:36:50.776Z,12.05
2023-03-07T12:42:02.102Z,8.07
2023-03-07T12:47:06.425Z,10.50
2023-03-07T12:52:06.448Z,13.15
2023-03-07T12:57:08.567Z,11.32
2023-03-07T13:02:11.737Z,8.73
2023-03-07T13:07:29.849Z,7.43
2023-03-07T13:12:32.119Z,12.80
2023-03-07T13:17:31.465Z,17.02
2023-03-07T13:22:27.884Z,11.52
2023-03-07T13:27:28.085Z,12.65
2023-03-07T13:32:52.284Z,7.80
2023-03-07T13:37:54.370Z,8.70
2023-03-07T13:42:52.036Z,10.60
2023-03-07T13:47:48.581Z,10.80
2023-03-07T13:52:46.209Z,6.13
2023-03-07T13:57:42.900Z,6.95
2023-03-07T14:02:42.960Z,8.98
2023-03-07T14:07:42.284Z,8.70
2023-03-07T14:13:13.473Z,5.93
2023-03-07T14:18:24.102Z,6.10
2023-03-07T14:23:46.990Z,6.30
2023-03-07T14:29:13.257Z,5.97
2023-03-07T14:34:28.418Z,7.43
2023-03-07T14:39:35.740Z,6.97
2023-03-07T14:44:38.052Z,8.18
2023-03-07T14:49:59.239Z,7.65
2023-03-07T14:54:56.964Z,8.13
2023-03-07T15:00:20.058Z,8.32
2023-03-07T15:05:19.772Z,7.43
2023-03-07T15:10:33.477Z,6.32
2023-03-07T15:15:35.295Z,10.10
2023-03-07T15:20:33.144Z,5.80
2023-03-07T15:25:30.021Z,8.43
2023-03-07T15:30:33.565Z,6.93
2023-03-07T15:35:30.209Z,8.90
2023-03-07T15:40:26.858Z,8.27
2023-03-07T15:45:31.680Z,6.82
2023-03-07T15:50:29.617Z,6.15
2023-03-07T15:55:26.954Z,5.55
2023-03-07T16:00:40.011Z,9.38
2023-03-07T16:10:33.520Z,6.78
2023-03-07T16:15:29.995Z,7.35
2023-03-07T16:20:28.036Z,9.73
2023-03-07T16:25:27.827Z,9.75
2023-03-07T16:30:29.969Z,9.70
2023-03-07T16:35:28.336Z,8.15
2023-03-07T16:40:26.142Z,9.73
2023-03-07T16:45:26.227Z,12.18
2023-03-07T16:50:25.991Z,14.68
2023-03-07T16:55:23.261Z,10.52
2023-03-07T17:00:24.896Z,9.25
2023-03-07T17:05:25.495Z,8.90
2023-03-07T17:10:23.560Z,8.43
2023-03-07T17:15:24.420Z,9.48
2023-03-07T17:20:21.473Z,10.88
2023-03-07T17:25:18.078Z,6.60
2023-03-07T17:30:23.204Z,9.25
2023-03-07T17:35:19.966Z,10.30
2023-03-07T17:40:16.934Z,11.60
2023-03-07T17:45:13.893Z,10.25
2023-03-07T17:50:11.936Z,9.93
2023-03-07T17:55:09.751Z,6.63
2023-03-07T18:00:12.319Z,9.38
2023-03-07T18:05:08.875Z,8.32
2023-03-07T18:10:08.753Z,11.63
2023-03-07T18:15:08.840Z,6.53
2023-03-07T18:20:11.265Z,6.70
2023-03-07T18:30:06.290Z,8.02
2023-03-07T18:35:03.613Z,11.48
2023-03-07T18:40:00.055Z,7.40
2023-03-07T18:44:56.499Z,8.20
2023-03-07T18:49:52.943Z,7.38
2023-03-07T18:54:49.571Z,13.25
2023-03-07T18:59:46.105Z,6.15
2023-03-07T19:04:42.504Z,8.07
2023-03-07T19:09:39.121Z,6.53
2023-03-07T19:14:35.607Z,8.65
2023-03-07T19:19:32.091Z,15.80
2023-03-07T19:24:28.468Z,7.13
2023-03-07T19:29:24.894Z,9.88
2023-03-07T19:34:21.314Z,12.20
2023-03-07T19:39:20.229Z,6.97
2023-03-07T19:44:17.380Z,8.75
2023-03-07T19:49:17.245Z,10.02
2023-03-07T19:54:14.344Z,10.43
2023-03-07T19:59:11.638Z,9.75
2023-03-07T20:04:13.032Z,9.48
2023-03-07T20:09:12.760Z,9.18
2023-03-07T20:14:10.461Z,7.43
2023-03-07T20:19:08.666Z,8.95
2023-03-07T20:24:06.800Z,7.70
2023-03-07T20:29:05.601Z,5.75
2023-03-07T20:34:02.805Z,8.13
2023-03-07T20:39:07.701Z,10.00
2023-03-07T20:44:06.461Z,17.98
2023-03-07T20:49:03.178Z,13.32
2023-03-07T20:54:01.967Z,9.60
2023-03-07T20:58:59.829Z,10.57
2023-03-07T21:04:00.324Z,8.32
2023-03-07T21:08:59.286Z,9.48
2023-03-07T21:13:55.694Z,8.75
2023-03-07T21:18:52.096Z,6.10
2023-03-07T21:23:48.902Z,7.38
2023-03-07T21:28:45.889Z,7.18
2023-03-07T21:33:44.483Z,8.02
2023-03-07T21:38:41.848Z,7.05
2023-03-07T21:43:38.388Z,7.90
2023-03-07T21:48:34.919Z,10.25
2023-03-07T21:53:31.976Z,9.48
2023-03-07T21:58:31.108Z,7.88
2023-03-07T22:03:29.016Z,9.68
2023-03-07T22:08:25.452Z,10.15
2023-03-07T22:13:21.827Z,6.90
2023-03-07T22:18:18.278Z,12.90
2023-03-07T22:23:14.747Z,7.20
2023-03-07T22:28:11.231Z,5.35
2023-03-07T22:33:08.588Z,5.32
2023-03-07T22:38:05.013Z,6.68
2023-03-07T22:43:01.432Z,11.32
2023-03-07T22:47:59.795Z,6.38
2023-03-07T22:52:56.258Z,7.78
2023-03-07T22:57:52.688Z,7.10
2023-03-07T23:02:49.303Z,11.25
2023-03-07T23:07:48.319Z,10.15
2023-03-07T23:12:45.097Z,17.88
2023-03-07T23:17:44.545Z,9.13
2023-03-07T23:22:42.753Z,10.90
2023-03-07T23:27:39.560Z,7.93
2023-03-07T23:32:36.154Z,8.00
2023-03-07T23:37:32.641Z,9.30
2023-03-07T23:42:29.041Z,14.02
2023-03-07T23:47:25.426Z,10.32
2023-03-07T23:52:21.891Z,8.57
2023-03-07T23:57:18.308Z,5.90
